createdAt,value
2022-11-23T00:01:17.684Z,117.80
2022-11-23T00:03:45.446Z,120.57
2022-11-23T00:06:12.275Z,114.03
2022-11-23T00:08:39.026Z,133.37
2022-11-23T00:11:07.294Z,114.63
2022-11-23T00:13:34.540Z,115.00
2022-11-23T00:16:01.340Z,124.30
2022-11-23T00:18:28.570Z,108.23
2022-11-23T00:20:55.232Z,100.03
2022-11-23T00:23:21.926Z,129.53
2022-11-23T00:25:49.172Z,112.07
2022-11-23T00:28:17.136Z,118.53
2022-11-23T00:30:49.519Z,119.53
2022-11-23T00:33:16.717Z,129.17
2022-11-23T00:35:43.372Z,118.33
2022-11-23T00:38:10.062Z,112.17
2022-11-23T00:40:36.879Z,115.70
2022-11-23T00:43:03.608Z,122.73
2022-11-23T00:45:31.404Z,117.27
2022-11-23T00:47:58.141Z,110.37
2022-11-23T00:50:24.885Z,124.10
2022-11-23T00:52:51.626Z,100.93
2022-11-23T00:55:18.280Z,118.47
2022-11-23T00:57:45.004Z,123.63
2022-11-23T01:00:12.573Z,117.13
2022-11-23T01:02:39.892Z,120.60
2022-11-23T01:05:07.106Z,107.80
2022-11-23T01:07:33.802Z,109.57
2022-11-23T01:10:00.474Z,109.77
2022-11-23T01:12:28.883Z,114.67
2022-11-23T01:14:55.625Z,128.00
2022-11-23T01:17:22.390Z,120.40
2022-11-23T01:19:49.757Z,104.23
2022-11-23T01:22:16.509Z,116.23
2022-11-23T01:24:43.887Z,119.13
2022-11-23T01:27:10.575Z,113.70
2022-11-23T01:29:37.331Z,121.27
2022-11-23T01:32:04.191Z,106.83
2022-11-23T01:34:30.922Z,114.27
2022-11-23T01:36:58.465Z,114.83
2022-11-23T01:39:25.247Z,105.07
2022-11-23T01:41:51.866Z,125.30
2022-11-23T01:44:25.189Z,105.37
2022-11-23T01:46:51.883Z,114.80
2022-11-23T01:49:18.804Z,119.43
2022-11-23T01:51:48.429Z,106.40
2022-11-23T01:54:21.363Z,106.57
2022-11-23T01:56:51.144Z,105.67
2022-11-23T01:59:21.563Z,108.53
2022-11-23T02:01:48.322Z,117.60
2022-11-23T02:04:19.135Z,115.30
2022-11-23T02:06:47.104Z,99.43
2022-11-23T02:09:15.679Z,111.53
2022-11-23T02:11:42.535Z,113.97
2022-11-23T02:14:09.664Z,100.43
2022-11-23T02:16:37.981Z,115.43
2022-11-23T02:19:11.889Z,118.47
2022-11-23T02:21:40.132Z,102.80
2022-11-23T02:24:12.455Z,111.03
2022-11-23T02:26:40.533Z,107.37
2022-11-23T02:29:12.546Z,123.83
2022-11-23T02:31:39.507Z,111.17
2022-11-23T02:34:06.143Z,114.50
2022-11-23T02:36:39.128Z,100.40
2022-11-23T02:39:08.845Z,106.07
2022-11-23T02:41:37.892Z,90.37
2022-11-23T02:44:09.687Z,98.57
2022-11-23T02:46:36.683Z,107.03
2022-11-23T02:49:03.330Z,105.60
2022-11-23T02:51:30.154Z,97.93
2022-11-23T02:53:56.788Z,97.40
2022-11-23T02:56:23.427Z,106.53
2022-11-23T02:58:50.079Z,98.27
2022-11-23T03:01:17.551Z,104.13
2022-11-23T03:03:44.281Z,99.73
2022-11-23T03:06:10.994Z,98.03
2022-11-23T03:08:37.654Z,112.37
2022-11-23T03:11:05.696Z,91.37
2022-11-23T03:13:32.358Z,93.97
2022-11-23T03:15:59.095Z,99.33
2022-11-23T03:18:26.431Z,98.50
2022-11-23T03:20:53.086Z,108.53
2022-11-23T03:23:19.730Z,99.90
2022-11-23T03:25:54.048Z,90.33
2022-11-23T03:28:20.672Z,101.23
2022-11-23T03:30:47.368Z,94.27
2022-11-23T03:33:14.006Z,91.30
2022-11-23T03:35:41.388Z,93.13
2022-11-23T03:38:08.116Z,104.00
2022-11-23T03:40:34.879Z,92.50
2022-11-23T03:43:01.582Z,90.23
2022-11-23T03:45:28.224Z,102.10
2022-11-23T03:47:54.888Z,103.33
2022-11-23T03:50:21.776Z,89.10
2022-11-23T03:52:49.464Z,110.37
2022-11-23T03:55:16.308Z,103.10
2022-11-23T03:57:42.968Z,94.43
2022-11-23T04:00:10.508Z,99.20
2022-11-23T04:02:37.194Z,88.30
2022-11-23T04:05:04.297Z,106.47
2022-11-23T04:07:32.233Z,100.57
2022-11-23T04:09:59.613Z,110.80
2022-11-23T04:12:26.491Z,106.53
2022-11-23T04:14:53.157Z,96.10
2022-11-23T04:17:19.768Z,96.57
2022-11-23T04:19:46.503Z,99.27
2022-11-23T04:22:13.468Z,103.17
2022-11-23T04:24:40.117Z,99.27
2022-11-23T04:27:07.501Z,89.67
2022-11-23T04:29:34.762Z,99.60
2022-11-23T04:32:01.555Z,101.20
2022-11-23T04:34:28.202Z,98.30
2022-11-23T04:36:54.920Z,97.67
2022-11-23T04:39:21.570Z,107.87
2022-11-23T04:41:48.226Z,109.40
2022-11-23T04:44:15.560Z,97.13
2022-11-23T04:46:42.262Z,104.73
2022-11-23T04:49:09.186Z,106.47
2022-11-23T04:51:35.886Z,90.37
2022-11-23T04:54:02.583Z,107.83
2022-11-23T04:56:29.280Z,105.17
2022-11-23T04:58:55.926Z,102.00
2022-11-23T05:01:23.229Z,100.53
2022-11-23T05:03:49.948Z,103.30
2022-11-23T05:06:16.655Z,97.20
2022-11-23T05:08:43.545Z,105.60
2022-11-23T05:11:10.313Z,95.00
2022-11-23T05:13:37.011Z,104.83
2022-11-23T05:16:04.176Z,113.87
2022-11-23T05:18:31.495Z,100.30
2022-11-23T05:20:58.206Z,97.90
2022-11-23T05:23:24.889Z,90.90
2022-11-23T05:25:51.609Z,104.53
2022-11-23T05:31:07.135Z,105.20
2022-11-23T05:33:35.309Z,100.93
2022-11-23T05:36:01.971Z,94.13
2022-11-23T05:38:28.773Z,92.07
2022-11-23T05:40:55.415Z,86.53
2022-11-23T05:43:22.124Z,86.60
2022-11-23T05:45:49.226Z,94.33
2022-11-23T05:48:16.049Z,89.40
2022-11-23T05:50:43.505Z,107.83
2022-11-23T05:53:10.233Z,95.43
2022-11-23T05:55:36.954Z,89.30
2022-11-23T05:58:03.645Z,94.10
2022-11-23T06:00:30.312Z,86.00
2022-11-23T06:02:59.754Z,96.17
2022-11-23T06:05:26.457Z,83.37
2022-11-23T06:07:53.949Z,94.20
2022-11-23T06:10:20.736Z,88.83
2022-11-23T06:12:49.241Z,89.10
2022-11-23T06:15:16.621Z,90.60
2022-11-23T06:17:43.363Z,84.57
2022-11-23T06:20:10.678Z,91.83
2022-11-23T06:22:37.317Z,83.33
2022-11-23T06:25:05.652Z,96.73
2022-11-23T06:27:32.362Z,89.57
2022-11-23T06:29:59.065Z,83.00
2022-11-23T06:32:25.706Z,96.90
2022-11-23T06:34:53.872Z,85.93
2022-11-23T06:37:22.292Z,84.03
2022-11-23T06:39:48.975Z,92.20
2022-11-23T06:42:37.882Z,90.10
2022-11-23T06:45:04.358Z,86.40
2022-11-23T06:47:31.023Z,89.67
2022-11-23T06:49:58.136Z,85.77
2022-11-23T06:52:24.799Z,88.87
2022-11-23T06:54:51.405Z,94.13
2022-11-23T06:57:18.701Z,100.00
2022-11-23T06:59:45.401Z,91.70
2022-11-23T07:02:12.138Z,93.67
2022-11-23T07:04:38.846Z,87.03
2022-11-23T07:07:07.482Z,89.60
2022-11-23T07:09:34.678Z,82.53
2022-11-23T07:12:01.793Z,91.90
2022-11-23T07:14:29.170Z,91.43
2022-11-23T07:16:56.038Z,86.17
2022-11-23T07:19:25.540Z,89.37
2022-11-23T07:21:52.253Z,82.90
2022-11-23T07:24:18.924Z,84.23
2022-11-23T07:26:45.656Z,93.73
2022-11-23T07:29:12.497Z,98.50
2022-11-23T07:31:40.257Z,85.23
2022-11-23T07:34:08.591Z,98.27
2022-11-23T07:36:35.900Z,87.63
2022-11-23T07:39:03.181Z,94.10
2022-11-23T07:41:29.965Z,93.53
2022-11-23T07:43:56.671Z,86.20
2022-11-23T07:46:23.454Z,86.17
2022-11-23T07:48:50.889Z,84.93
2022-11-23T07:51:19.392Z,91.03
2022-11-23T07:53:46.179Z,79.43
2022-11-23T07:56:12.889Z,86.90
2022-11-23T07:58:45.422Z,92.27
2022-11-23T08:01:17.220Z,91.53
2022-11-23T08:03:44.483Z,90.33
2022-11-23T08:06:12.530Z,84.23
2022-11-23T08:08:39.622Z,80.20
2022-11-23T08:11:07.337Z,84.63
2022-11-23T08:13:34.386Z,76.83
2022-11-23T08:16:01.211Z,75.63
2022-11-23T08:18:27.900Z,77.03
2022-11-23T08:20:54.848Z,75.57
2022-11-23T08:23:22.284Z,83.13
2022-11-23T08:25:48.970Z,82.63
2022-11-23T08:28:15.767Z,75.93
2022-11-23T08:30:42.499Z,83.60
2022-11-23T08:33:10.107Z,73.73
2022-11-23T08:35:38.742Z,76.30
2022-11-23T08:38:06.464Z,69.37
2022-11-23T08:40:35.059Z,81.93
2022-11-23T08:43:01.876Z,72.93
2022-11-23T08:45:29.167Z,74.47
2022-11-23T08:48:00.122Z,73.03
2022-11-23T08:50:28.482Z,71.80
2022-11-23T08:52:56.037Z,69.40
2022-11-23T08:55:22.879Z,75.97
2022-11-23T08:57:50.184Z,69.43
2022-11-23T09:00:17.396Z,70.23
2022-11-23T09:02:44.040Z,76.60
2022-11-23T09:05:10.732Z,67.40
2022-11-23T09:07:40.115Z,67.00
2022-11-23T09:10:07.718Z,65.30
2022-11-23T09:12:34.387Z,65.63
2022-11-23T09:15:01.843Z,77.03
2022-11-23T09:17:31.525Z,66.87
2022-11-23T09:19:58.159Z,67.70
2022-11-23T09:22:25.915Z,69.20
2022-11-23T09:24:54.166Z,71.57
2022-11-23T09:27:20.912Z,63.67
2022-11-23T09:29:47.604Z,61.30
2022-11-23T09:32:14.956Z,60.23
2022-11-23T09:34:41.735Z,57.87
2022-11-23T09:37:08.436Z,60.50
2022-11-23T09:39:35.107Z,66.97
2022-11-23T09:42:25.606Z,59.37
2022-11-23T09:45:13.951Z,61.73
2022-11-23T09:47:53.574Z,69.20
2022-11-23T09:50:26.534Z,56.93
2022-11-23T09:52:53.959Z,67.30
2022-11-23T09:55:32.108Z,61.50
2022-11-23T09:58:03.702Z,57.00
2022-11-23T10:00:37.428Z,55.93
2022-11-23T10:03:05.121Z,60.27
2022-11-23T10:05:38.159Z,57.00
2022-11-23T10:08:10.110Z,59.23
2022-11-23T10:10:42.889Z,61.10
2022-11-23T10:13:34.410Z,62.07
2022-11-23T10:16:23.269Z,59.43
2022-11-23T10:18:58.396Z,61.20
2022-11-23T10:21:34.515Z,55.93
2022-11-23T10:24:13.185Z,55.77
2022-11-23T10:26:43.749Z,51.63
2022-11-23T10:29:15.404Z,56.67
2022-11-23T10:31:46.855Z,63.63
2022-11-23T10:34:17.266Z,59.27
2022-11-23T10:36:43.921Z,52.60
2022-11-23T10:39:22.206Z,52.03
2022-11-23T10:41:50.350Z,55.63
2022-11-23T10:44:28.485Z,55.33
2022-11-23T10:46:55.131Z,47.63
2022-11-23T10:49:24.266Z,50.67
2022-11-23T10:51:56.539Z,49.37
2022-11-23T10:54:27.293Z,48.77
2022-11-23T10:56:55.150Z,51.33
2022-11-23T10:59:31.876Z,54.27
2022-11-23T11:02:16.441Z,56.30
2022-11-23T11:04:44.167Z,49.67
2022-11-23T11:07:24.160Z,50.90
2022-11-23T11:09:53.788Z,47.23
2022-11-23T11:12:20.801Z,49.67
2022-11-23T11:15:11.799Z,50.10
2022-11-23T11:17:41.307Z,56.33
2022-11-23T11:20:28.602Z,48.90
2022-11-23T11:22:56.996Z,51.73
2022-11-23T11:25:29.915Z,48.30
2022-11-23T11:27:58.056Z,52.10
2022-11-23T11:30:27.981Z,44.77
2022-11-23T11:33:02.137Z,52.17
2022-11-23T11:35:34.204Z,44.57
2022-11-23T11:38:07.837Z,51.50
2022-11-23T11:40:39.114Z,46.83
2022-11-23T11:43:09.923Z,47.80
2022-11-23T11:45:38.964Z,42.83
2022-11-23T11:48:13.262Z,51.00
2022-11-23T11:50:48.525Z,44.83
2022-11-23T11:53:20.301Z,47.93
2022-11-23T11:55:54.323Z,45.80
2022-11-23T11:58:24.106Z,49.87
2022-11-23T12:00:58.589Z,48.30
2022-11-23T12:03:37.843Z,46.60
2022-11-23T12:06:10.905Z,49.77
2022-11-23T12:08:45.905Z,54.13
2022-11-23T12:11:13.141Z,42.73
2022-11-23T12:13:44.001Z,46.37
2022-11-23T12:16:21.614Z,51.40
2022-11-23T12:19:03.222Z,49.03
2022-11-23T12:21:54.361Z,46.43
2022-11-23T12:24:35.553Z,45.37
2022-11-23T12:27:11.081Z,50.07
2022-11-23T12:29:52.787Z,46.63
2022-11-23T12:32:30.414Z,43.90
2022-11-23T12:35:30.996Z,42.53
2022-11-23T12:38:11.355Z,54.37
2022-11-23T12:40:47.508Z,45.87
2022-11-23T12:43:22.104Z,48.57
2022-11-23T12:46:09.150Z,35.07
2022-11-23T12:48:59.717Z,40.27
2022-11-23T12:51:35.873Z,41.60
2022-11-23T12:54:21.362Z,42.30
2022-11-23T12:56:59.370Z,37.27
2022-11-23T12:59:35.076Z,39.83
2022-11-23T13:02:08.521Z,41.13
2022-11-23T13:05:03.131Z,36.90
2022-11-23T13:08:02.032Z,41.57
2022-11-23T13:10:40.308Z,46.43
2022-11-23T13:13:29.503Z,36.80
2022-11-23T13:16:33.677Z,35.17
2022-11-23T13:19:16.619Z,32.90
2022-11-23T13:21:45.336Z,38.93
2022-11-23T13:24:33.795Z,34.93
2022-11-23T13:27:38.062Z,35.23
2022-11-23T13:30:21.446Z,35.40
2022-11-23T13:32:55.148Z,35.60
2022-11-23T13:36:05.201Z,39.83
2022-11-23T13:38:38.145Z,29.27
2022-11-23T13:41:55.162Z,34.30
2022-11-23T13:44:27.543Z,32.20
2022-11-23T13:47:19.672Z,34.43
2022-11-23T13:49:48.030Z,38.27
2022-11-23T13:52:30.969Z,37.17
2022-11-23T13:55:19.311Z,41.23
2022-11-23T13:58:06.952Z,39.80
2022-11-23T14:00:48.032Z,36.43
2022-11-23T14:03:55.024Z,33.60
2022-11-23T14:06:26.870Z,29.83
2022-11-23T14:09:00.680Z,38.60
2022-11-23T14:11:28.250Z,39.60
2022-11-23T14:14:00.409Z,43.10
2022-11-23T14:16:53.673Z,35.33
2022-11-23T14:19:27.549Z,51.10
2022-11-23T14:22:07.571Z,39.00
2022-11-23T14:25:02.220Z,42.00
2022-11-23T14:27:49.191Z,36.73
2022-11-23T14:30:23.638Z,37.53
2022-11-23T14:33:08.346Z,38.60
2022-11-23T14:35:45.601Z,35.03
2022-11-23T14:38:46.006Z,47.90
2022-11-23T14:41:17.043Z,38.93
2022-11-23T14:43:45.930Z,45.90
2022-11-23T14:46:18.587Z,52.80
2022-11-23T14:48:46.479Z,49.77
2022-11-23T14:51:18.472Z,49.60
2022-11-23T14:53:48.182Z,44.57
2022-11-23T14:56:29.756Z,53.73
2022-11-23T14:59:02.743Z,46.70
2022-11-23T15:01:30.512Z,49.17
2022-11-23T15:03:59.704Z,51.10
2022-11-23T15:06:31.739Z,51.67
2022-11-23T15:09:08.165Z,55.53
2022-11-23T15:11:37.129Z,56.63
2022-11-23T15:14:16.266Z,51.20
2022-11-23T15:17:06.460Z,46.43
2022-11-23T15:19:35.321Z,48.30
2022-11-23T15:22:11.940Z,43.93
2022-11-23T15:24:38.881Z,62.03
2022-11-23T15:27:12.377Z,50.57
2022-11-23T15:29:39.809Z,45.30
2022-11-23T15:32:31.575Z,53.33
2022-11-23T15:35:02.302Z,48.30
2022-11-23T15:37:31.125Z,46.97
2022-11-23T15:39:58.995Z,43.37
2022-11-23T15:42:27.267Z,48.13
2022-11-23T15:44:56.286Z,50.53
2022-11-23T15:47:28.988Z,53.10
2022-11-23T15:50:00.638Z,45.93
2022-11-23T15:52:30.064Z,43.73
2022-11-23T15:55:04.507Z,46.97
2022-11-23T15:57:35.651Z,44.37
2022-11-23T16:00:07.665Z,46.50
2022-11-23T16:02:41.148Z,50.47
2022-11-23T16:05:14.128Z,47.63
2022-11-23T16:07:52.997Z,47.30
2022-11-23T16:10:22.837Z,43.57
2022-11-23T16:12:52.995Z,48.40
2022-11-23T16:15:48.904Z,53.33
2022-11-23T16:18:25.134Z,62.73
2022-11-23T16:21:02.264Z,53.53
2022-11-23T16:23:44.808Z,52.53
2022-11-23T16:26:13.208Z,56.23
2022-11-23T16:28:48.482Z,56.33
2022-11-23T16:31:32.426Z,52.77
2022-11-23T16:34:00.108Z,59.53
2022-11-23T16:36:27.680Z,53.30
2022-11-23T16:38:58.595Z,50.73
2022-11-23T16:41:30.007Z,61.07
2022-11-23T16:43:57.478Z,54.00
2022-11-23T16:46:24.787Z,60.57
2022-11-23T16:48:53.665Z,56.77
2022-11-23T16:51:21.738Z,52.30
2022-11-23T16:56:36.773Z,61.57
2022-11-23T16:59:04.715Z,60.53
2022-11-23T17:01:32.409Z,60.40
2022-11-23T17:03:59.265Z,75.27
2022-11-23T17:06:26.030Z,59.90
2022-11-23T17:09:03.107Z,66.40
2022-11-23T17:11:34.910Z,71.43
2022-11-23T17:14:05.074Z,62.43
2022-11-23T17:16:33.373Z,72.20
2022-11-23T17:19:00.119Z,73.00
2022-11-23T17:21:27.582Z,76.53
2022-11-23T17:23:54.284Z,72.33
2022-11-23T17:26:33.546Z,67.40
2022-11-23T17:29:03.462Z,79.57
2022-11-23T17:31:33.060Z,77.93
2022-11-23T17:34:00.205Z,79.53
2022-11-23T17:36:31.446Z,74.30
2022-11-23T17:38:58.760Z,76.00
2022-11-23T17:41:25.483Z,89.07
2022-11-23T17:43:53.893Z,102.50
2022-11-23T17:46:23.740Z,81.57
2022-11-23T17:48:54.899Z,81.57
2022-11-23T17:51:22.627Z,77.60
2022-11-23T17:53:49.368Z,85.20
2022-11-23T17:56:25.577Z,83.73
2022-11-23T17:58:54.813Z,83.63
2022-11-23T18:01:24.231Z,87.07
2022-11-23T18:03:51.171Z,84.33
2022-11-23T18:06:20.347Z,91.20
2022-11-23T18:08:48.286Z,92.17
2022-11-23T18:11:15.305Z,85.20
2022-11-23T18:13:42.853Z,90.43
2022-11-23T18:16:11.571Z,93.87
2022-11-23T18:18:39.065Z,96.90
2022-11-23T18:21:06.263Z,88.67
2022-11-23T18:23:33.793Z,96.33
2022-11-23T18:26:01.356Z,90.73
2022-11-23T18:28:29.457Z,92.43
2022-11-23T18:30:56.713Z,93.13
2022-11-23T18:33:24.081Z,99.97
2022-11-23T18:35:53.979Z,94.57
2022-11-23T18:38:24.550Z,95.97
2022-11-23T18:40:51.392Z,95.40
2022-11-23T18:43:18.067Z,98.23
2022-11-23T18:45:44.800Z,106.37
2022-11-23T18:48:12.787Z,90.60
2022-11-23T18:50:39.973Z,92.53
2022-11-23T18:53:08.488Z,103.17
2022-11-23T18:55:35.648Z,83.83
2022-11-23T18:58:03.200Z,101.23
2022-11-23T19:00:29.910Z,97.63
2022-11-23T19:02:58.760Z,89.30
2022-11-23T19:05:27.491Z,89.87
2022-11-23T19:07:57.137Z,92.00
2022-11-23T19:10:25.549Z,111.20
2022-11-23T19:12:52.396Z,102.97
2022-11-23T19:15:19.101Z,113.10
2022-11-23T19:17:47.103Z,98.33
2022-11-23T19:20:13.948Z,112.33
2022-11-23T19:22:40.744Z,94.87
2022-11-23T19:25:10.440Z,95.13
2022-11-23T19:27:38.032Z,98.47
2022-11-23T19:30:07.956Z,97.43
2022-11-23T19:32:35.046Z,95.77
2022-11-23T19:35:01.729Z,97.50
2022-11-23T19:37:28.459Z,93.47
2022-11-23T19:39:55.378Z,105.57
2022-11-23T19:42:22.260Z,99.03
2022-11-23T19:44:49.703Z,103.13
2022-11-23T19:47:22.565Z,92.10
2022-11-23T19:49:49.629Z,99.20
2022-11-23T19:52:17.156Z,100.43
2022-11-23T19:54:44.181Z,87.93
2022-11-23T19:57:11.666Z,82.60
2022-11-23T19:59:43.155Z,93.73
2022-11-23T20:02:22.779Z,86.93
2022-11-23T20:05:01.290Z,87.10
2022-11-23T20:07:42.560Z,102.20
2022-11-23T20:10:24.926Z,91.93
2022-11-23T20:13:14.923Z,97.63
2022-11-23T20:15:45.060Z,89.57
2022-11-23T20:18:13.016Z,89.57
2022-11-23T20:20:45.440Z,88.83
2022-11-23T20:23:14.079Z,100.30
2022-11-23T20:25:42.982Z,95.03
2022-11-23T20:28:13.718Z,97.27
2022-11-23T20:30:42.604Z,100.20
2022-11-23T20:33:11.994Z,105.93
2022-11-23T20:35:43.259Z,100.33
2022-11-23T20:38:21.228Z,98.10
2022-11-23T20:40:50.931Z,101.07
2022-11-23T20:43:19.164Z,100.37
2022-11-23T20:45:49.307Z,102.70
2022-11-23T20:48:18.448Z,106.17
2022-11-23T20:50:45.868Z,99.87
2022-11-23T20:53:21.219Z,108.70
2022-11-23T20:55:49.427Z,115.10
2022-11-23T20:58:17.590Z,98.97
2022-11-23T21:00:48.729Z,117.83
2022-11-23T21:03:18.336Z,101.57
2022-11-23T21:05:46.177Z,109.37
2022-11-23T21:08:20.694Z,105.10
2022-11-23T21:11:09.112Z,106.73
2022-11-23T21:13:56.587Z,112.47
2022-11-23T21:16:23.345Z,114.83
2022-11-23T21:18:52.018Z,127.37
2022-11-23T21:21:19.585Z,111.47
2022-11-23T21:23:50.961Z,118.13
2022-11-23T21:26:19.032Z,125.97
2022-11-23T21:28:45.877Z,115.80
2022-11-23T21:31:14.256Z,134.57
2022-11-23T21:33:42.049Z,133.63
2022-11-23T21:36:11.223Z,142.57
2022-11-23T21:38:40.202Z,168.97
2022-11-23T21:41:09.573Z,149.20
2022-11-23T21:43:36.499Z,135.93
2022-11-23T21:46:05.835Z,134.87
2022-11-23T21:48:33.296Z,128.97
2022-11-23T21:51:01.336Z,130.17
2022-11-23T21:53:28.393Z,134.87
2022-11-23T21:56:00.707Z,141.47
2022-11-23T21:58:27.608Z,143.70
2022-11-23T22:00:57.746Z,130.53
2022-11-23T22:03:24.604Z,131.33
2022-11-23T22:05:58.088Z,142.53
2022-11-23T22:08:29.278Z,138.73
2022-11-23T22:10:57.533Z,151.57
2022-11-23T22:13:25.220Z,141.43
2022-11-23T22:15:52.352Z,135.20
2022-11-23T22:18:19.002Z,154.90
2022-11-23T22:20:45.919Z,133.80
2022-11-23T22:23:12.928Z,152.93
2022-11-23T22:25:42.936Z,150.17
2022-11-23T22:28:12.906Z,158.27
2022-11-23T22:30:39.928Z,155.60
2022-11-23T22:33:06.824Z,146.53
2022-11-23T22:35:33.646Z,157.30
2022-11-23T22:38:00.339Z,193.17
2022-11-23T22:40:32.532Z,179.63
2022-11-23T22:43:00.222Z,175.00
2022-11-23T22:45:27.647Z,160.63
2022-11-23T22:47:54.370Z,183.73
2022-11-23T22:50:21.573Z,191.97
2022-11-23T22:52:48.303Z,200.77
2022-11-23T22:55:15.139Z,227.20
2022-11-23T22:57:41.852Z,212.10
2022-11-23T23:00:10.274Z,180.93
2022-11-23T23:02:38.500Z,229.03
2022-11-23T23:05:07.340Z,179.20
2022-11-23T23:07:34.391Z,288.57
2022-11-23T23:10:01.116Z,211.70
2022-11-23T23:12:28.239Z,161.57
2022-11-23T23:14:54.911Z,171.77
2022-11-23T23:17:21.743Z,184.00
2022-11-23T23:19:49.155Z,225.83
2022-11-23T23:22:15.801Z,196.37
2022-11-23T23:24:42.606Z,362.73
2022-11-23T23:27:10.197Z,162.63
2022-11-23T23:29:37.702Z,197.77
2022-11-23T23:32:05.064Z,176.10
2022-11-23T23:34:32.182Z,268.17
2022-11-23T23:37:00.520Z,197.30
2022-11-23T23:39:27.222Z,190.27
2022-11-23T23:41:53.981Z,221.97
2022-11-23T23:44:20.633Z,188.80
2022-11-23T23:46:47.306Z,177.70
2022-11-23T23:49:14.015Z,204.93
2022-11-23T23:51:40.799Z,196.33
2022-11-23T23:54:08.829Z,184.00
2022-11-23T23:56:35.620Z,170.97
2022-11-23T23:59:02.437Z,165.63
